sensor_id;sensor_type;location;lat;lon;timestamp;P1;durP1;ratioP1;P2;durP2;ratioP2
40675;SDS011;26359;48.750;9.314;2023-04-06T00:01:26;20.63;;;14.85;;
40675;SDS011;26359;48.750;9.314;2023-04-06T00:03:52;17.77;;;15.88;;
40675;SDS011;26359;48.750;9.314;2023-04-06T00:06:17;21.77;;;15.52;;
40675;SDS011;26359;48.750;9.314;2023-04-06T00:08:43;17.02;;;13.52;;
40675;SDS011;26359;48.750;9.314;2023-04-06T00:11:09;16.13;;;14.05;;
40675;SDS011;26359;48.750;9.314;2023-04-06T00:13:35;17.77;;;14.10;;
40675;SDS011;26359;48.750;9.314;2023-04-06T00:16:00;19.17;;;13.43;;
40675;SDS011;26359;48.750;9.314;2023-04-06T00:18:26;17.52;;;13.60;;
40675;SDS011;26359;48.750;9.314;2023-04-06T00:20:51;19.77;;;13.30;;
40675;SDS011;26359;48.750;9.314;2023-04-06T00:23:17;17.27;;;13.25;;
40675;SDS011;26359;48.750;9.314;2023-04-06T00:25:43;15.45;;;12.25;;
40675;SDS011;26359;48.750;9.314;2023-04-06T00:28:08;16.55;;;12.82;;
40675;SDS011;26359;48.750;9.314;2023-04-06T00:30:34;16.55;;;12.77;;
40675;SDS011;26359;48.750;9.314;2023-04-06T00:32:59;19.33;;;13.30;;
40675;SDS011;26359;48.750;9.314;2023-04-06T00:35:25;16.30;;;12.38;;
40675;SDS011;26359;48.750;9.314;2023-04-06T00:37:51;18.00;;;12.90;;
40675;SDS011;26359;48.750;9.314;2023-04-06T00:40:16;17.60;;;13.45;;
40675;SDS011;26359;48.750;9.314;2023-04-06T00:42:43;18.30;;;13.77;;
40675;SDS011;26359;48.750;9.314;2023-04-06T00:45:09;21.27;;;14.50;;
40675;SDS011;26359;48.750;9.314;2023-04-06T00:47:35;16.58;;;13.20;;
40675;SDS011;26359;48.750;9.314;2023-04-06T00:50:00;21.42;;;14.27;;
40675;SDS011;26359;48.750;9.314;2023-04-06T00:52:26;17.55;;;12.98;;
40675;SDS011;26359;48.750;9.314;2023-04-06T00:54:51;17.90;;;14.60;;
40675;SDS011;26359;48.750;9.314;2023-04-06T00:57:17;17.80;;;14.00;;
40675;SDS011;26359;48.750;9.314;2023-04-06T00:59:43;18.63;;;13.50;;
40675;SDS011;26359;48.750;9.314;2023-04-06T01:02:09;17.38;;;14.10;;
40675;SDS011;26359;48.750;9.314;2023-04-06T01:04:35;20.63;;;13.48;;
40675;SDS011;26359;48.750;9.314;2023-04-06T01:07:00;17.55;;;13.65;;
40675;SDS011;26359;48.750;9.314;2023-04-06T01:09:29;16.98;;;13.65;;
40675;SDS011;26359;48.750;9.314;2023-04-06T01:11:55;19.25;;;13.52;;
40675;SDS011;26359;48.750;9.314;2023-04-06T01:14:22;16.48;;;13.00;;
40675;SDS011;26359;48.750;9.314;2023-04-06T01:16:48;18.13;;;13.15;;
40675;SDS011;26359;48.750;9.314;2023-04-06T01:19:13;16.10;;;13.80;;
40675;SDS011;26359;48.750;9.314;2023-04-06T01:21:39;17.92;;;13.15;;
40675;SDS011;26359;48.750;9.314;2023-04-06T01:24:05;16.02;;;13.45;;
40675;SDS011;26359;48.750;9.314;2023-04-06T01:26:31;18.20;;;13.38;;
40675;SDS011;26359;48.750;9.314;2023-04-06T01:28:58;20.75;;;13.88;;
40675;SDS011;26359;48.750;9.314;2023-04-06T01:31:24;18.88;;;13.15;;
40675;SDS011;26359;48.750;9.314;2023-04-06T01:33:50;18.02;;;12.80;;
40675;SDS011;26359;48.750;9.314;2023-04-06T01:36:15;16.95;;;13.70;;
40675;SDS011;26359;48.750;9.314;2023-04-06T01:38:41;16.55;;;13.02;;
40675;SDS011;26359;48.750;9.314;2023-04-06T01:41:07;17.20;;;13.55;;
40675;SDS011;26359;48.750;9.314;2023-04-06T01:43:33;19.38;;;14.98;;
40675;SDS011;26359;48.750;9.314;2023-04-06T01:45:59;17.55;;;15.68;;
40675;SDS011;26359;48.750;9.314;2023-04-06T01:48:25;21.52;;;14.68;;
40675;SDS011;26359;48.750;9.314;2023-04-06T01:50:51;16.92;;;14.75;;
40675;SDS011;26359;48.750;9.314;2023-04-06T01:53:17;17.05;;;13.93;;
40675;SDS011;26359;48.750;9.314;2023-04-06T01:55:42;18.42;;;14.00;;
40675;SDS011;26359;48.750;9.314;2023-04-06T01:58:08;17.83;;;13.95;;
40675;SDS011;26359;48.750;9.314;2023-04-06T02:00:33;19.50;;;14.25;;
40675;SDS011;26359;48.750;9.314;2023-04-06T02:02:59;15.88;;;12.85;;
40675;SDS011;26359;48.750;9.314;2023-04-06T02:05:25;18.95;;;14.23;;
40675;SDS011;26359;48.750;9.314;2023-04-06T02:07:51;20.08;;;14.55;;
40675;SDS011;26359;48.750;9.314;2023-04-06T02:10:17;16.58;;;14.32;;
40675;SDS011;26359;48.750;9.314;2023-04-06T02:12:42;16.30;;;14.55;;
40675;SDS011;26359;48.750;9.314;2023-04-06T02:15:08;14.80;;;13.05;;
40675;SDS011;26359;48.750;9.314;2023-04-06T02:17:34;16.48;;;13.40;;
40675;SDS011;26359;48.750;9.314;2023-04-06T02:20:00;16.55;;;14.75;;
40675;SDS011;26359;48.750;9.314;2023-04-06T02:22:25;21.92;;;15.75;;
40675;SDS011;26359;48.750;9.314;2023-04-06T02:24:51;19.23;;;14.02;;
40675;SDS011;26359;48.750;9.314;2023-04-06T02:27:16;19.23;;;14.13;;
40675;SDS011;26359;48.750;9.314;2023-04-06T02:29:42;19.08;;;14.32;;
40675;SDS011;26359;48.750;9.314;2023-04-06T02:32:07;17.77;;;13.98;;
40675;SDS011;26359;48.750;9.314;2023-04-06T02:34:33;20.77;;;16.00;;
40675;SDS011;26359;48.750;9.314;2023-04-06T02:36:58;19.73;;;16.67;;
40675;SDS011;26359;48.750;9.314;2023-04-06T02:39:24;19.17;;;14.82;;
40675;SDS011;26359;48.750;9.314;2023-04-06T02:41:49;21.33;;;15.23;;
40675;SDS011;26359;48.750;9.314;2023-04-06T02:44:15;18.95;;;15.30;;
40675;SDS011;26359;48.750;9.314;2023-04-06T02:46:40;23.85;;;15.35;;
40675;SDS011;26359;48.750;9.314;2023-04-06T02:49:06;22.40;;;14.73;;
40675;SDS011;26359;48.750;9.314;2023-04-06T02:51:32;20.33;;;14.98;;
40675;SDS011;26359;48.750;9.314;2023-04-06T02:53:58;19.17;;;14.43;;
40675;SDS011;26359;48.750;9.314;2023-04-06T02:56:24;20.10;;;14.75;;
40675;SDS011;26359;48.750;9.314;2023-04-06T02:58:49;18.27;;;14.38;;
40675;SDS011;26359;48.750;9.314;2023-04-06T03:01:15;19.60;;;15.73;;
40675;SDS011;26359;48.750;9.314;2023-04-06T03:03:40;21.35;;;15.02;;
40675;SDS011;26359;48.750;9.314;2023-04-06T03:06:06;17.25;;;13.98;;
40675;SDS011;26359;48.750;9.314;2023-04-06T03:08:31;19.75;;;14.65;;
40675;SDS011;26359;48.750;9.314;2023-04-06T03:10:57;18.95;;;14.10;;
40675;SDS011;26359;48.750;9.314;2023-04-06T03:13:22;18.30;;;14.02;;
40675;SDS011;26359;48.750;9.314;2023-04-06T03:15:48;18.90;;;13.88;;
40675;SDS011;26359;48.750;9.314;2023-04-06T03:18:14;20.77;;;16.10;;
40675;SDS011;26359;48.750;9.314;2023-04-06T03:20:40;18.00;;;14.50;;
40675;SDS011;26359;48.750;9.314;2023-04-06T03:23:05;20.27;;;16.73;;
40675;SDS011;26359;48.750;9.314;2023-04-06T03:25:31;22.42;;;15.75;;
40675;SDS011;26359;48.750;9.314;2023-04-06T03:27:56;23.98;;;15.00;;
40675;SDS011;26359;48.750;9.314;2023-04-06T03:30:22;24.83;;;16.38;;
40675;SDS011;26359;48.750;9.314;2023-04-06T03:32:47;22.67;;;16.38;;
40675;SDS011;26359;48.750;9.314;2023-04-06T03:35:13;21.90;;;15.60;;
40675;SDS011;26359;48.750;9.314;2023-04-06T03:37:38;20.85;;;16.10;;
40675;SDS011;26359;48.750;9.314;2023-04-06T03:40:04;21.77;;;15.35;;
40675;SDS011;26359;48.750;9.314;2023-04-06T03:42:30;18.90;;;14.40;;
40675;SDS011;26359;48.750;9.314;2023-04-06T03:44:57;20.80;;;15.90;;
40675;SDS011;26359;48.750;9.314;2023-04-06T03:47:23;19.23;;;15.18;;
40675;SDS011;26359;48.750;9.314;2023-04-06T03:49:49;16.38;;;13.68;;
40675;SDS011;26359;48.750;9.314;2023-04-06T03:52:15;20.13;;;15.02;;
40675;SDS011;26359;48.750;9.314;2023-04-06T03:54:40;20.67;;;14.82;;
40675;SDS011;26359;48.750;9.314;2023-04-06T03:57:06;19.00;;;15.07;;
40675;SDS011;26359;48.750;9.314;2023-04-06T03:59:31;22.90;;;15.40;;
40675;SDS011;26359;48.750;9.314;2023-04-06T04:01:57;17.80;;;15.23;;
40675;SDS011;26359;48.750;9.314;2023-04-06T04:04:22;20.40;;;14.75;;
40675;SDS011;26359;48.750;9.314;2023-04-06T04:06:48;20.02;;;15.82;;
40675;SDS011;26359;48.750;9.314;2023-04-06T04:09:13;25.08;;;14.27;;
40675;SDS011;26359;48.750;9.314;2023-04-06T04:11:39;20.20;;;18.00;;
40675;SDS011;26359;48.750;9.314;2023-04-06T04:14:04;19.88;;;16.52;;
40675;SDS011;26359;48.750;9.314;2023-04-06T04:16:30;17.35;;;15.35;;
40675;SDS011;26359;48.750;9.314;2023-04-06T04:18:55;19.90;;;16.27;;
40675;SDS011;26359;48.750;9.314;2023-04-06T04:21:23;19.67;;;15.55;;
40675;SDS011;26359;48.750;9.314;2023-04-06T04:23:48;21.65;;;15.80;;
40675;SDS011;26359;48.750;9.314;2023-04-06T04:26:14;20.08;;;15.82;;
40675;SDS011;26359;48.750;9.314;2023-04-06T04:28:40;21.70;;;15.27;;
40675;SDS011;26359;48.750;9.314;2023-04-06T04:31:05;21.50;;;15.27;;
40675;SDS011;26359;48.750;9.314;2023-04-06T04:33:31;19.98;;;15.35;;
40675;SDS011;26359;48.750;9.314;2023-04-06T04:35:56;20.52;;;15.20;;
40675;SDS011;26359;48.750;9.314;2023-04-06T04:38:22;20.65;;;15.48;;
40675;SDS011;26359;48.750;9.314;2023-04-06T04:40:47;19.10;;;14.93;;
40675;SDS011;26359;48.750;9.314;2023-04-06T04:43:13;20.63;;;14.63;;
40675;SDS011;26359;48.750;9.314;2023-04-06T04:45:38;17.13;;;14.25;;
40675;SDS011;26359;48.750;9.314;2023-04-06T04:48:04;22.33;;;15.75;;
40675;SDS011;26359;48.750;9.314;2023-04-06T04:50:30;18.55;;;14.93;;
40675;SDS011;26359;48.750;9.314;2023-04-06T04:52:56;20.17;;;15.20;;
40675;SDS011;26359;48.750;9.314;2023-04-06T04:55:22;19.90;;;14.43;;
40675;SDS011;26359;48.750;9.314;2023-04-06T04:57:47;24.88;;;14.98;;
40675;SDS011;26359;48.750;9.314;2023-04-06T05:00:13;19.83;;;14.68;;
40675;SDS011;26359;48.750;9.314;2023-04-06T05:02:39;19.80;;;15.52;;
40675;SDS011;26359;48.750;9.314;2023-04-06T05:05:05;20.23;;;14.98;;
40675;SDS011;26359;48.750;9.314;2023-04-06T05:07:30;20.05;;;14.77;;
40675;SDS011;26359;48.750;9.314;2023-04-06T05:09:56;18.55;;;14.27;;
40675;SDS011;26359;48.750;9.314;2023-04-06T05:12:21;22.45;;;14.68;;
40675;SDS011;26359;48.750;9.314;2023-04-06T05:14:47;20.05;;;15.35;;
40675;SDS011;26359;48.750;9.314;2023-04-06T05:17:13;18.67;;;15.40;;
40675;SDS011;26359;48.750;9.314;2023-04-06T05:19:38;24.52;;;15.73;;
40675;SDS011;26359;48.750;9.314;2023-04-06T05:22:04;18.92;;;15.05;;
40675;SDS011;26359;48.750;9.314;2023-04-06T05:24:29;19.92;;;15.95;;
40675;SDS011;26359;48.750;9.314;2023-04-06T05:26:55;19.65;;;15.27;;
40675;SDS011;26359;48.750;9.314;2023-04-06T05:29:21;21.55;;;15.52;;
40675;SDS011;26359;48.750;9.314;2023-04-06T05:31:46;20.50;;;15.02;;
40675;SDS011;26359;48.750;9.314;2023-04-06T05:34:12;21.50;;;15.00;;
40675;SDS011;26359;48.750;9.314;2023-04-06T05:36:38;22.35;;;15.98;;
40675;SDS011;26359;48.750;9.314;2023-04-06T05:39:05;20.17;;;15.45;;
40675;SDS011;26359;48.750;9.314;2023-04-06T05:41:31;21.10;;;15.27;;
40675;SDS011;26359;48.750;9.314;2023-04-06T05:43:56;18.50;;;14.90;;
40675;SDS011;26359;48.750;9.314;2023-04-06T05:46:22;20.95;;;15.15;;
40675;SDS011;26359;48.750;9.314;2023-04-06T05:48:47;22.08;;;15.90;;
40675;SDS011;26359;48.750;9.314;2023-04-06T05:51:13;19.80;;;15.25;;
40675;SDS011;26359;48.750;9.314;2023-04-06T05:53:38;19.40;;;14.77;;
40675;SDS011;26359;48.750;9.314;2023-04-06T05:56:09;18.15;;;14.57;;
40675;SDS011;26359;48.750;9.314;2023-04-06T05:58:40;19.52;;;15.05;;
40675;SDS011;26359;48.750;9.314;2023-04-06T06:01:06;18.65;;;15.52;;
40675;SDS011;26359;48.750;9.314;2023-04-06T06:03:31;19.52;;;15.02;;
40675;SDS011;26359;48.750;9.314;2023-04-06T06:06:00;21.08;;;14.35;;
40675;SDS011;26359;48.750;9.314;2023-04-06T06:08:27;21.73;;;15.68;;
40675;SDS011;26359;48.750;9.314;2023-04-06T06:10:53;22.55;;;15.52;;
40675;SDS011;26359;48.750;9.314;2023-04-06T06:13:19;23.17;;;15.98;;
40675;SDS011;26359;48.750;9.314;2023-04-06T06:15:44;20.38;;;14.95;;
40675;SDS011;26359;48.750;9.314;2023-04-06T06:18:10;24.67;;;16.42;;
40675;SDS011;26359;48.750;9.314;2023-04-06T06:20:35;21.00;;;15.80;;
40675;SDS011;26359;48.750;9.314;2023-04-06T06:23:01;18.63;;;15.38;;
40675;SDS011;26359;48.750;9.314;2023-04-06T06:25:27;20.85;;;15.98;;
40675;SDS011;26359;48.750;9.314;2023-04-06T06:27:55;20.08;;;15.57;;
40675;SDS011;26359;48.750;9.314;2023-04-06T06:30:21;18.15;;;14.73;;
40675;SDS011;26359;48.750;9.314;2023-04-06T06:32:46;20.60;;;15.93;;
40675;SDS011;26359;48.750;9.314;2023-04-06T06:35:12;19.48;;;15.35;;
40675;SDS011;26359;48.750;9.314;2023-04-06T06:37:37;20.90;;;15.23;;
40675;SDS011;26359;48.750;9.314;2023-04-06T06:40:03;19.02;;;14.27;;
40675;SDS011;26359;48.750;9.314;2023-04-06T06:42:29;21.40;;;15.73;;
40675;SDS011;26359;48.750;9.314;2023-04-06T06:44:54;20.35;;;15.57;;
40675;SDS011;26359;48.750;9.314;2023-04-06T06:47:20;19.05;;;14.95;;
40675;SDS011;26359;48.750;9.314;2023-04-06T06:49:46;22.67;;;14.75;;
40675;SDS011;26359;48.750;9.314;2023-04-06T06:52:11;18.95;;;14.90;;
40675;SDS011;26359;48.750;9.314;2023-04-06T06:54:37;21.67;;;15.63;;
40675;SDS011;26359;48.750;9.314;2023-04-06T06:57:02;20.98;;;14.93;;
40675;SDS011;26359;48.750;9.314;2023-04-06T06:59:28;22.63;;;15.52;;
40675;SDS011;26359;48.750;9.314;2023-04-06T07:01:53;26.33;;;16.55;;
40675;SDS011;26359;48.750;9.314;2023-04-06T07:04:19;21.52;;;15.20;;
40675;SDS011;26359;48.750;9.314;2023-04-06T07:06:45;19.88;;;15.48;;
40675;SDS011;26359;48.750;9.314;2023-04-06T07:09:10;19.45;;;15.93;;
40675;SDS011;26359;48.750;9.314;2023-04-06T07:11:36;24.55;;;15.98;;
40675;SDS011;26359;48.750;9.314;2023-04-06T07:14:01;24.50;;;17.05;;
40675;SDS011;26359;48.750;9.314;2023-04-06T07:16:27;21.17;;;16.77;;
40675;SDS011;26359;48.750;9.314;2023-04-06T07:18:52;23.67;;;16.00;;
40675;SDS011;26359;48.750;9.314;2023-04-06T07:21:18;22.05;;;16.05;;
40675;SDS011;26359;48.750;9.314;2023-04-06T07:23:44;22.13;;;16.38;;
40675;SDS011;26359;48.750;9.314;2023-04-06T07:26:09;22.73;;;16.55;;
40675;SDS011;26359;48.750;9.314;2023-04-06T07:28:35;21.23;;;15.18;;
40675;SDS011;26359;48.750;9.314;2023-04-06T07:31:00;21.00;;;16.30;;
40675;SDS011;26359;48.750;9.314;2023-04-06T07:33:26;18.92;;;17.00;;
40675;SDS011;26359;48.750;9.314;2023-04-06T07:35:54;22.25;;;19.88;;
40675;SDS011;26359;48.750;9.314;2023-04-06T07:38:20;24.60;;;17.70;;
40675;SDS011;26359;48.750;9.314;2023-04-06T07:40:46;25.05;;;15.68;;
40675;SDS011;26359;48.750;9.314;2023-04-06T07:43:12;22.95;;;16.35;;
40675;SDS011;26359;48.750;9.314;2023-04-06T07:45:37;20.40;;;15.80;;
40675;SDS011;26359;48.750;9.314;2023-04-06T07:48:03;22.20;;;15.80;;
40675;SDS011;26359;48.750;9.314;2023-04-06T07:50:29;18.45;;;15.57;;
40675;SDS011;26359;48.750;9.314;2023-04-06T07:52:54;21.35;;;15.70;;
40675;SDS011;26359;48.750;9.314;2023-04-06T07:55:20;21.02;;;15.25;;
40675;SDS011;26359;48.750;9.314;2023-04-06T07:57:45;19.30;;;15.98;;
40675;SDS011;26359;48.750;9.314;2023-04-06T08:00:12;23.63;;;19.80;;
40675;SDS011;26359;48.750;9.314;2023-04-06T08:02:38;24.35;;;20.98;;
40675;SDS011;26359;48.750;9.314;2023-04-06T08:05:04;24.52;;;17.75;;
40675;SDS011;26359;48.750;9.314;2023-04-06T08:07:30;20.90;;;14.63;;
40675;SDS011;26359;48.750;9.314;2023-04-06T08:09:56;17.48;;;13.95;;
40675;SDS011;26359;48.750;9.314;2023-04-06T08:12:21;18.95;;;14.02;;
40675;SDS011;26359;48.750;9.314;2023-04-06T08:14:47;19.08;;;14.38;;
40675;SDS011;26359;48.750;9.314;2023-04-06T08:17:13;17.35;;;14.77;;
40675;SDS011;26359;48.750;9.314;2023-04-06T08:19:38;18.33;;;15.73;;
40675;SDS011;26359;48.750;9.314;2023-04-06T08:22:04;20.95;;;17.13;;
40675;SDS011;26359;48.750;9.314;2023-04-06T08:24:30;19.67;;;15.88;;
40675;SDS011;26359;48.750;9.314;2023-04-06T08:26:57;18.48;;;14.82;;
40675;SDS011;26359;48.750;9.314;2023-04-06T08:29:22;23.08;;;19.75;;
40675;SDS011;26359;48.750;9.314;2023-04-06T08:31:48;18.75;;;16.50;;
40675;SDS011;26359;48.750;9.314;2023-04-06T08:34:14;20.30;;;16.67;;
40675;SDS011;26359;48.750;9.314;2023-04-06T08:36:40;19.58;;;17.50;;
40675;SDS011;26359;48.750;9.314;2023-04-06T08:39:06;25.50;;;23.17;;
40675;SDS011;26359;48.750;9.314;2023-04-06T08:41:32;23.67;;;21.38;;
40675;SDS011;26359;48.750;9.314;2023-04-06T08:44:01;23.63;;;17.67;;
40675;SDS011;26359;48.750;9.314;2023-04-06T08:46:30;18.35;;;15.95;;
40675;SDS011;26359;48.750;9.314;2023-04-06T08:48:56;23.83;;;19.83;;
40675;SDS011;26359;48.750;9.314;2023-04-06T08:51:24;20.98;;;18.83;;
40675;SDS011;26359;48.750;9.314;2023-04-06T08:53:53;19.58;;;16.58;;
40675;SDS011;26359;48.750;9.314;2023-04-06T08:56:22;17.95;;;16.10;;
40675;SDS011;26359;48.750;9.314;2023-04-06T08:58:48;18.38;;;16.55;;
40675;SDS011;26359;48.750;9.314;2023-04-06T09:01:16;19.00;;;14.93;;
40675;SDS011;26359;48.750;9.314;2023-04-06T09:03:43;20.75;;;17.05;;
40675;SDS011;26359;48.750;9.314;2023-04-06T09:06:09;23.02;;;18.88;;
40675;SDS011;26359;48.750;9.314;2023-04-06T09:08:38;17.73;;;15.82;;
40675;SDS011;26359;48.750;9.314;2023-04-06T09:11:05;17.27;;;14.52;;
40675;SDS011;26359;48.750;9.314;2023-04-06T09:13:43;21.35;;;14.98;;
40675;SDS011;26359;48.750;9.314;2023-04-06T09:16:19;17.42;;;15.35;;
40675;SDS011;26359;48.750;9.314;2023-04-06T09:18:45;20.50;;;14.95;;
40675;SDS011;26359;48.750;9.314;2023-04-06T09:21:12;19.55;;;14.55;;
40675;SDS011;26359;48.750;9.314;2023-04-06T09:23:41;18.63;;;14.52;;
40675;SDS011;26359;48.750;9.314;2023-04-06T09:26:11;18.70;;;14.07;;
40675;SDS011;26359;48.750;9.314;2023-04-06T09:28:50;18.58;;;14.20;;
40675;SDS011;26359;48.750;9.314;2023-04-06T09:31:24;22.33;;;14.77;;
40675;SDS011;26359;48.750;9.314;2023-04-06T09:33:51;17.17;;;14.27;;
40675;SDS011;26359;48.750;9.314;2023-04-06T09:36:17;20.95;;;14.35;;
40675;SDS011;26359;48.750;9.314;2023-04-06T09:38:55;17.35;;;15.52;;
40675;SDS011;26359;48.750;9.314;2023-04-06T09:41:23;18.30;;;15.50;;
40675;SDS011;26359;48.750;9.314;2023-04-06T09:44:05;21.00;;;15.98;;
40675;SDS011;26359;48.750;9.314;2023-04-06T09:46:34;18.98;;;15.07;;
40675;SDS011;26359;48.750;9.314;2023-04-06T09:49:04;21.63;;;16.10;;
40675;SDS011;26359;48.750;9.314;2023-04-06T09:51:32;18.95;;;16.60;;
40675;SDS011;26359;48.750;9.314;2023-04-06T09:54:02;19.05;;;16.23;;
40675;SDS011;26359;48.750;9.314;2023-04-06T09:56:36;18.85;;;14.63;;
40675;SDS011;26359;48.750;9.314;2023-04-06T09:59:09;17.50;;;14.18;;
40675;SDS011;26359;48.750;9.314;2023-04-06T10:01:58;19.48;;;14.63;;
40675;SDS011;26359;48.750;9.314;2023-04-06T10:04:31;16.33;;;13.18;;
40675;SDS011;26359;48.750;9.314;2023-04-06T10:07:12;14.95;;;11.93;;
40675;SDS011;26359;48.750;9.314;2023-04-06T10:09:38;14.32;;;11.30;;
40675;SDS011;26359;48.750;9.314;2023-04-06T10:12:06;15.57;;;12.15;;
40675;SDS011;26359;48.750;9.314;2023-04-06T10:14:35;16.85;;;15.15;;
40675;SDS011;26359;48.750;9.314;2023-04-06T10:17:02;18.77;;;15.77;;
40675;SDS011;26359;48.750;9.314;2023-04-06T10:19:35;12.77;;;10.75;;
40675;SDS011;26359;48.750;9.314;2023-04-06T10:22:08;13.95;;;12.50;;
40675;SDS011;26359;48.750;9.314;2023-04-06T10:24:40;14.57;;;13.20;;
40675;SDS011;26359;48.750;9.314;2023-04-06T10:27:06;12.85;;;10.52;;
40675;SDS011;26359;48.750;9.314;2023-04-06T10:29:44;14.95;;;13.52;;
40675;SDS011;26359;48.750;9.314;2023-04-06T10:32:12;14.57;;;13.32;;
40675;SDS011;26359;48.750;9.314;2023-04-06T10:34:38;19.10;;;17.40;;
40675;SDS011;26359;48.750;9.314;2023-04-06T10:37:16;19.02;;;17.45;;
40675;SDS011;26359;48.750;9.314;2023-04-06T10:40:01;16.42;;;14.85;;
40675;SDS011;26359;48.750;9.314;2023-04-06T10:42:37;13.73;;;12.45;;
40675;SDS011;26359;48.750;9.314;2023-04-06T10:45:06;14.57;;;13.00;;
40675;SDS011;26359;48.750;9.314;2023-04-06T10:47:39;15.55;;;14.25;;
40675;SDS011;26359;48.750;9.314;2023-04-06T10:50:05;15.13;;;13.73;;
40675;SDS011;26359;48.750;9.314;2023-04-06T10:52:31;18.63;;;16.83;;
40675;SDS011;26359;48.750;9.314;2023-04-06T10:54:56;16.95;;;15.35;;
40675;SDS011;26359;48.750;9.314;2023-04-06T10:57:28;17.60;;;16.02;;
40675;SDS011;26359;48.750;9.314;2023-04-06T10:59:55;16.58;;;15.18;;
40675;SDS011;26359;48.750;9.314;2023-04-06T11:02:21;15.80;;;14.43;;
40675;SDS011;26359;48.750;9.314;2023-04-06T11:04:54;16.85;;;15.35;;
40675;SDS011;26359;48.750;9.314;2023-04-06T11:07:27;15.63;;;14.18;;
40675;SDS011;26359;48.750;9.314;2023-04-06T11:09:55;12.98;;;11.68;;
40675;SDS011;26359;48.750;9.314;2023-04-06T11:12:27;14.02;;;12.65;;
40675;SDS011;26359;48.750;9.314;2023-04-06T11:14:58;17.40;;;15.90;;
40675;SDS011;26359;48.750;9.314;2023-04-06T11:17:29;11.97;;;10.83;;
40675;SDS011;26359;48.750;9.314;2023-04-06T11:19:55;21.73;;;19.77;;
40675;SDS011;26359;48.750;9.314;2023-04-06T11:22:21;24.90;;;23.05;;
40675;SDS011;26359;48.750;9.314;2023-04-06T11:24:47;21.98;;;20.25;;
40675;SDS011;26359;48.750;9.314;2023-04-06T11:27:13;18.15;;;16.75;;
40675;SDS011;26359;48.750;9.314;2023-04-06T11:29:41;25.98;;;23.83;;
40675;SDS011;26359;48.750;9.314;2023-04-06T11:32:07;16.00;;;14.77;;
40675;SDS011;26359;48.750;9.314;2023-04-06T11:34:37;13.45;;;12.18;;
40675;SDS011;26359;48.750;9.314;2023-04-06T11:37:09;18.35;;;16.77;;
40675;SDS011;26359;48.750;9.314;2023-04-06T11:39:40;10.13;;;8.93;;
40675;SDS011;26359;48.750;9.314;2023-04-06T11:42:12;12.70;;;11.57;;
40675;SDS011;26359;48.750;9.314;2023-04-06T11:44:38;12.70;;;11.40;;
40675;SDS011;26359;48.750;9.314;2023-04-06T11:47:09;12.77;;;11.57;;
40675;SDS011;26359;48.750;9.314;2023-04-06T11:49:40;10.50;;;9.50;;
40675;SDS011;26359;48.750;9.314;2023-04-06T11:54:42;11.18;;;10.13;;
40675;SDS011;26359;48.750;9.314;2023-04-06T11:57:08;14.85;;;13.65;;
40675;SDS011;26359;48.750;9.314;2023-04-06T11:59:34;11.70;;;10.60;;
40675;SDS011;26359;48.750;9.314;2023-04-06T12:02:03;15.05;;;13.65;;
40675;SDS011;26359;48.750;9.314;2023-04-06T12:04:29;11.48;;;10.38;;
40675;SDS011;26359;48.750;9.314;2023-04-06T12:06:55;13.30;;;12.20;;
40675;SDS011;26359;48.750;9.314;2023-04-06T12:09:20;13.48;;;12.18;;
40675;SDS011;26359;48.750;9.314;2023-04-06T12:11:46;11.48;;;9.98;;
40675;SDS011;26359;48.750;9.314;2023-04-06T12:14:12;10.30;;;9.35;;
40675;SDS011;26359;48.750;9.314;2023-04-06T12:16:38;10.52;;;9.63;;
40675;SDS011;26359;48.750;9.314;2023-04-06T12:19:03;9.05;;;8.18;;
40675;SDS011;26359;48.750;9.314;2023-04-06T12:21:29;8.77;;;7.95;;
40675;SDS011;26359;48.750;9.314;2023-04-06T12:23:56;9.25;;;8.35;;
40675;SDS011;26359;48.750;9.314;2023-04-06T12:26:22;8.77;;;7.97;;
40675;SDS011;26359;48.750;9.314;2023-04-06T12:28:47;8.63;;;7.75;;
40675;SDS011;26359;48.750;9.314;2023-04-06T12:31:16;8.70;;;7.75;;
40675;SDS011;26359;48.750;9.314;2023-04-06T12:33:45;11.15;;;8.80;;
40675;SDS011;26359;48.750;9.314;2023-04-06T12:36:15;8.80;;;7.93;;
40675;SDS011;26359;48.750;9.314;2023-04-06T12:38:43;8.93;;;8.13;;
40675;SDS011;26359;48.750;9.314;2023-04-06T12:41:10;8.55;;;7.38;;
40675;SDS011;26359;48.750;9.314;2023-04-06T12:43:36;9.80;;;8.90;;
40675;SDS011;26359;48.750;9.314;2023-04-06T12:46:02;10.32;;;9.32;;
40675;SDS011;26359;48.750;9.314;2023-04-06T12:48:28;11.05;;;10.00;;
40675;SDS011;26359;48.750;9.314;2023-04-06T12:51:03;15.10;;;13.88;;
40675;SDS011;26359;48.750;9.314;2023-04-06T12:53:31;8.63;;;7.82;;
40675;SDS011;26359;48.750;9.314;2023-04-06T12:55:58;8.68;;;7.90;;
40675;SDS011;26359;48.750;9.314;2023-04-06T12:58:24;8.50;;;7.72;;
40675;SDS011;26359;48.750;9.314;2023-04-06T13:00:57;9.10;;;7.53;;
40675;SDS011;26359;48.750;9.314;2023-04-06T13:03:27;9.43;;;8.32;;
40675;SDS011;26359;48.750;9.314;2023-04-06T13:05:53;7.90;;;7.03;;
40675;SDS011;26359;48.750;9.314;2023-04-06T13:08:19;8.35;;;7.53;;
40675;SDS011;26359;48.750;9.314;2023-04-06T13:10:49;11.20;;;10.10;;
40675;SDS011;26359;48.750;9.314;2023-04-06T13:13:21;8.70;;;7.80;;
40675;SDS011;26359;48.750;9.314;2023-04-06T13:15:48;10.25;;;9.30;;
40675;SDS011;26359;48.750;9.314;2023-04-06T13:18:14;9.48;;;8.45;;
40675;SDS011;26359;48.750;9.314;2023-04-06T13:20:41;8.93;;;8.02;;
40675;SDS011;26359;48.750;9.314;2023-04-06T13:23:07;9.48;;;8.57;;
40675;SDS011;26359;48.750;9.314;2023-04-06T13:25:32;12.90;;;11.80;;
40675;SDS011;26359;48.750;9.314;2023-04-06T13:27:58;12.20;;;11.20;;
40675;SDS011;26359;48.750;9.314;2023-04-06T13:30:24;14.13;;;12.93;;
40675;SDS011;26359;48.750;9.314;2023-04-06T13:32:50;10.50;;;9.60;;
40675;SDS011;26359;48.750;9.314;2023-04-06T13:35:15;9.20;;;8.30;;
40675;SDS011;26359;48.750;9.314;2023-04-06T13:37:42;8.10;;;7.30;;
40675;SDS011;26359;48.750;9.314;2023-04-06T13:40:07;7.85;;;7.05;;
40675;SDS011;26359;48.750;9.314;2023-04-06T13:42:33;8.32;;;7.53;;
40675;SDS011;26359;48.750;9.314;2023-04-06T13:45:00;8.40;;;7.60;;
40675;SDS011;26359;48.750;9.314;2023-04-06T13:47:26;8.50;;;7.72;;
40675;SDS011;26359;48.750;9.314;2023-04-06T13:49:52;9.55;;;8.75;;
40675;SDS011;26359;48.750;9.314;2023-04-06T13:52:18;9.52;;;8.63;;
40675;SDS011;26359;48.750;9.314;2023-04-06T13:54:44;9.18;;;8.30;;
40675;SDS011;26359;48.750;9.314;2023-04-06T13:57:10;8.85;;;8.13;;
40675;SDS011;26359;48.750;9.314;2023-04-06T13:59:36;8.35;;;7.55;;
40675;SDS011;26359;48.750;9.314;2023-04-06T14:02:03;10.60;;;8.68;;
40675;SDS011;26359;48.750;9.314;2023-04-06T14:04:29;10.43;;;9.10;;
40675;SDS011;26359;48.750;9.314;2023-04-06T14:06:56;8.63;;;7.82;;
40675;SDS011;26359;48.750;9.314;2023-04-06T14:09:22;9.93;;;8.98;;
40675;SDS011;26359;48.750;9.314;2023-04-06T14:11:48;9.77;;;8.88;;
40675;SDS011;26359;48.750;9.314;2023-04-06T14:14:14;11.98;;;10.02;;
40675;SDS011;26359;48.750;9.314;2023-04-06T14:16:40;10.23;;;9.32;;
40675;SDS011;26359;48.750;9.314;2023-04-06T14:19:08;10.43;;;9.45;;
40675;SDS011;26359;48.750;9.314;2023-04-06T14:21:40;9.02;;;8.20;;
40675;SDS011;26359;48.750;9.314;2023-04-06T14:24:07;11.68;;;10.45;;